Time;durP1;ratioP1;P1;durP2;ratioP2;P2;SDS_P1;SDS_P2;PMS_P1;PMS_P2;Temp;Humidity;BMP_temperature;BMP_pressure;BME280_temperature;BME280_humidity;BME280_pressure;Samples;Min_cycle;Max_cycle;Signal;HPM_P1;HPM_P2
2022/07/22 00:01:45;;;;;;;12.43;3.35;;;18.10;99.90;;;;;;5016335;28;20112;-76
2022/07/22 00:04:10;;;;;;;11.05;3.58;;;16.20;99.90;;;;;;4999331;28;20057;-77
2022/07/22 00:06:36;;;;;;;15.43;3.65;;;16.20;99.90;;;;;;4999581;28;20104;-76
2022/07/22 00:09:03;;;;;;;10.43;4.13;;;16.10;99.90;;;;;;5017306;28;20050;-76
2022/07/22 00:11:28;;;;;;;11.88;4.03;;;16.00;99.90;;;;;;5016788;28;20092;-76
2022/07/22 00:13:54;;;;;;;9.90;4.22;;;16.20;99.90;;;;;;4998997;28;20058;-76
2022/07/22 00:16:19;;;;;;;11.20;4.18;;;16.20;99.90;;;;;;4998552;28;20062;-76
2022/07/22 00:18:45;;;;;;;13.10;4.68;;;16.00;99.90;;;;;;4983008;28;20049;-76
2022/07/22 00:21:11;;;;;;;10.88;4.18;;;16.20;99.90;;;;;;5016518;28;20472;-76
2022/07/22 00:23:37;;;;;;;13.48;4.05;;;;;;;;;;5016362;28;20046;-77
2022/07/22 00:26:04;;;;;;;16.20;4.35;;;16.10;99.90;;;;;;4982839;28;20058;-76
2022/07/22 00:28:30;;;;;;;14.93;4.57;;;;;;;;;;5016022;28;20157;-76
2022/07/22 00:30:56;;;;;;;13.20;4.15;;;16.30;99.90;;;;;;5016553;28;20111;-76
2022/07/22 00:33:22;;;;;;;12.50;4.28;;;15.90;99.90;;;;;;4998359;28;20061;-77
2022/07/22 00:35:48;;;;;;;14.80;4.20;;;15.90;99.90;;;;;;5008713;28;20050;-76
2022/07/22 00:38:13;;;;;;;14.07;4.32;;;15.80;99.90;;;;;;4998075;28;20140;-75
2022/07/22 00:40:39;;;;;;;15.48;4.38;;;15.60;99.90;;;;;;4997969;28;20046;-76
2022/07/22 00:43:04;;;;;;;11.45;4.25;;;15.90;99.90;;;;;;4987837;28;20516;-76
2022/07/22 00:45:30;;;;;;;18.27;4.57;;;;;;;;;;5016227;28;20050;-76
2022/07/22 00:47:56;;;;;;;17.23;4.32;;;15.80;99.90;;;;;;4998345;28;20066;-76
2022/07/22 00:50:23;;;;;;;15.32;4.45;;;15.30;99.90;;;;;;5015794;28;20152;-76
2022/07/22 00:52:49;;;;;;;11.63;4.15;;;15.80;99.90;;;;;;4999086;28;20555;-77
2022/07/22 00:55:15;;;;;;;17.15;4.57;;;15.40;99.90;;;;;;5015680;28;20053;-77
2022/07/22 00:57:42;;;;;;;9.43;3.78;;;15.70;99.90;;;;;;5015716;28;20050;-77
2022/07/22 01:00:11;;;;;;;16.17;4.00;;;15.70;99.90;;;;;;5014834;28;20045;-77
2022/07/22 01:02:37;;;;;;;9.07;3.60;;;;;;;;;;4996851;28;20050;-77
2022/07/22 01:05:05;;;;;;;12.50;4.22;;;15.60;99.90;;;;;;5013442;28;20055;-77
2022/07/22 01:07:30;;;;;;;17.23;4.78;;;15.80;99.90;;;;;;5006515;28;20056;-77
2022/07/22 01:09:56;;;;;;;13.38;4.60;;;15.60;99.90;;;;;;5016101;28;20046;-76
2022/07/22 01:12:21;;;;;;;16.10;5.10;;;15.60;99.90;;;;;;5006259;28;20089;-77
2022/07/22 01:14:47;;;;;;;15.27;4.80;;;15.90;99.90;;;;;;4990712;28;20100;-77
2022/07/22 01:17:13;;;;;;;15.45;5.05;;;15.70;99.90;;;;;;4995643;28;20081;-77
2022/07/22 01:19:38;;;;;;;11.68;4.63;;;15.80;99.90;;;;;;4995806;28;20050;-77
2022/07/22 01:22:06;;;;;;;16.65;5.22;;;15.90;99.90;;;;;;4977797;28;20490;-76
2022/07/22 01:24:32;;;;;;;20.90;5.47;;;15.80;99.90;;;;;;4995536;28;20046;-77
2022/07/22 01:26:58;;;;;;;22.35;5.43;;;16.00;99.90;;;;;;4994336;28;20057;-76
2022/07/22 01:29:23;;;;;;;18.85;4.93;;;15.70;99.90;;;;;;4978181;28;20430;-76
2022/07/22 01:31:49;;;;;;;16.95;5.60;;;15.90;99.90;;;;;;4995820;28;20489;-76
2022/07/22 01:34:14;;;;;;;21.70;5.30;;;15.40;99.90;;;;;;4994160;28;20057;-77
2022/07/22 01:36:40;;;;;;;20.77;6.03;;;16.10;99.90;;;;;;4978365;28;20046;-76
2022/07/22 01:39:06;;;;;;;16.98;5.65;;;15.90;99.90;;;;;;4995536;28;20081;-76
2022/07/22 01:41:32;;;;;;;20.88;5.47;;;16.00;99.90;;;;;;4994621;28;20054;-76
2022/07/22 01:43:58;;;;;;;16.02;4.93;;;;;;;;;;4977459;28;20054;-76
2022/07/22 01:46:24;;;;;;;17.95;4.55;;;15.90;99.90;;;;;;4995407;28;20089;-76
2022/07/22 01:48:51;;;;;;;18.40;5.15;;;16.10;99.90;;;;;;4995382;28;20050;-76
2022/07/22 01:51:17;;;;;;;16.15;4.70;;;16.50;99.90;;;;;;4977708;28;20054;-76
2022/07/22 01:53:43;;;;;;;15.02;4.90;;;16.00;99.90;;;;;;4994959;28;20458;-77
2022/07/22 01:56:09;;;;;;;14.63;4.70;;;16.20;99.90;;;;;;4994993;28;20089;-76
2022/07/22 01:58:35;;;;;;;18.63;4.90;;;16.70;99.90;;;;;;4993418;28;20416;-77
2022/07/22 02:01:00;;;;;;;14.00;4.38;;;18.30;99.90;;;;;;4994675;28;20046;-77
2022/07/22 02:03:26;;;;;;;13.73;4.43;;;15.90;99.90;;;;;;4975685;28;20054;-77
2022/07/22 02:05:51;;;;;;;18.00;4.40;;;16.00;99.90;;;;;;4958547;28;20059;-77
2022/07/22 02:08:17;;;;;;;19.60;4.22;;;15.90;99.90;;;;;;4974993;28;20054;-77
2022/07/22 02:10:44;;;;;;;15.85;4.35;;;15.90;99.90;;;;;;4958172;28;20129;-77
2022/07/22 02:13:09;;;;;;;18.58;4.28;;;15.90;99.90;;;;;;4975200;28;20061;-77
2022/07/22 02:15:36;;;;;;;15.10;3.90;;;16.60;99.90;;;;;;4980870;28;20043;-77
2022/07/22 02:18:13;;;;;;;18.02;4.10;;;16.20;99.90;;;;;;4995303;28;20106;-77
2022/07/22 02:20:39;;;;;;;16.27;3.83;;;15.90;99.90;;;;;;4978179;28;20066;-77
2022/07/22 02:23:06;;;;;;;12.63;4.05;;;15.90;99.90;;;;;;4991934;28;20058;-77
2022/07/22 02:25:32;;;;;;;17.92;4.13;;;15.90;99.90;;;;;;4964681;28;20110;-77
2022/07/22 02:27:57;;;;;;;12.80;3.80;;;15.80;99.90;;;;;;4957433;28;20544;-78
2022/07/22 02:30:23;;;;;;;16.50;3.97;;;15.60;99.90;;;;;;4957913;28;20050;-78
2022/07/22 02:32:49;;;;;;;15.52;4.30;;;16.00;99.90;;;;;;4973744;28;20425;-77
2022/07/22 02:35:14;;;;;;;15.27;3.83;;;16.00;99.90;;;;;;4974870;28;20054;-78
2022/07/22 02:37:40;;;;;;;15.45;3.90;;;;;;;;;;4975639;28;20050;-78
2022/07/22 02:40:08;;;;;;;16.23;4.00;;;15.90;99.90;;;;;;4975616;28;20062;-77
2022/07/22 02:42:34;;;;;;;13.18;3.95;;;15.80;99.90;;;;;;4975257;28;20047;-78
2022/07/22 02:45:00;;;;;;;16.05;4.03;;;;;;;;;;4976122;28;20085;-77
2022/07/22 02:47:26;;;;;;;18.00;4.00;;;16.40;99.90;;;;;;4973975;28;20051;-75
2022/07/22 02:49:53;;;;;;;12.55;3.92;;;15.80;99.90;;;;;;4975275;28;20062;-78
2022/07/22 02:52:18;;;;;;;19.45;3.92;;;15.90;99.90;;;;;;4975201;28;20050;-77
2022/07/22 02:54:44;;;;;;;15.95;4.22;;;16.20;99.90;;;;;;4957432;28;20130;-77
2022/07/22 02:57:09;;;;;;;14.75;4.22;;;15.70;99.90;;;;;;4973724;28;20062;-77
2022/07/22 02:59:36;;;;;;;17.48;4.15;;;16.00;99.90;;;;;;4974703;28;20101;-77
2022/07/22 03:02:02;;;;;;;12.82;4.15;;;16.80;99.90;;;;;;4964042;28;20133;-77
2022/07/22 03:04:27;;;;;;;12.23;3.90;;;15.90;99.90;;;;;;4976687;28;20137;-77
2022/07/22 03:06:53;;;;;;;15.98;4.43;;;15.90;99.90;;;;;;4994399;28;20042;-77
2022/07/22 03:09:19;;;;;;;17.17;4.35;;;15.70;99.90;;;;;;4994109;28;20083;-77
2022/07/22 03:11:45;;;;;;;14.27;3.90;;;;;;;;;;4994070;28;20054;-78
2022/07/22 03:14:11;;;;;;;19.38;4.00;;;15.90;99.90;;;;;;4976712;28;20050;-77
2022/07/22 03:16:37;;;;;;;18.20;4.15;;;16.00;99.90;;;;;;4976392;28;20061;-77
2022/07/22 03:19:02;;;;;;;17.13;4.60;;;15.80;99.90;;;;;;4976339;28;20061;-77
2022/07/22 03:21:28;;;;;;;14.70;3.90;;;15.90;99.90;;;;;;4993043;28;20121;-77
2022/07/22 03:23:54;;;;;;;13.55;3.53;;;15.70;99.90;;;;;;4976475;28;20046;-77
2022/07/22 03:26:21;;;;;;;16.45;3.80;;;15.70;99.90;;;;;;4993856;28;20058;-77
2022/07/22 03:28:47;;;;;;;12.13;3.40;;;15.80;99.90;;;;;;4992438;28;20082;-77
2022/07/22 03:31:13;;;;;;;18.08;4.32;;;15.50;99.90;;;;;;4993794;28;20061;-77
2022/07/22 03:33:39;;;;;;;13.77;4.05;;;15.90;99.90;;;;;;4993773;28;20042;-77
2022/07/22 03:36:07;;;;;;;12.20;3.67;;;15.00;99.90;;;;;;4981025;28;20053;-75
2022/07/22 03:38:34;;;;;;;19.17;3.70;;;;;;;;;;4979770;28;20054;-75
2022/07/22 03:40:59;;;;;;;13.82;3.92;;;16.50;99.90;;;;;;4997342;28;20566;-75
2022/07/22 03:43:25;;;;;;;13.13;3.45;;;16.00;99.90;;;;;;4997795;28;20054;-75
2022/07/22 03:45:51;;;;;;;13.02;3.70;;;18.10;99.90;;;;;;4996339;28;20046;-76
2022/07/22 03:48:18;;;;;;;14.23;3.60;;;15.80;99.90;;;;;;4997205;28;20046;-77
2022/07/22 03:50:44;;;;;;;14.18;3.35;;;;;;;;;;4997650;28;20050;-77
2022/07/22 03:53:09;;;;;;;16.05;3.60;;;15.80;99.90;;;;;;4963656;28;20128;-77
2022/07/22 03:55:38;;;;;;;13.95;3.17;;;;;;;;;;4996917;28;20133;-76
2022/07/22 03:58:04;;;;;;;12.38;3.40;;;15.70;99.90;;;;;;4997329;28;20051;-76
2022/07/22 04:00:30;;;;;;;12.35;3.08;;;15.60;99.90;;;;;;4997747;28;20057;-77
2022/07/22 04:02:55;;;;;;;14.88;3.80;;;15.80;99.90;;;;;;4963127;28;20062;-77
2022/07/22 04:05:21;;;;;;;16.88;3.13;;;;;;;;;;4979743;28;20050;-76
2022/07/22 04:07:47;;;;;;;11.98;3.17;;;15.50;99.90;;;;;;4963841;28;20050;-77
2022/07/22 04:10:13;;;;;;;12.10;3.15;;;;;;;;;;4995869;28;20367;-77
2022/07/22 04:12:39;;;;;;;11.30;3.35;;;15.80;99.90;;;;;;4979404;28;20109;-77
2022/07/22 04:15:06;;;;;;;12.82;3.25;;;17.40;99.90;;;;;;4995678;28;20046;-77
2022/07/22 04:17:33;;;;;;;16.13;3.20;;;15.70;99.90;;;;;;4996478;28;20103;-76
2022/07/22 04:20:00;;;;;;;14.40;3.47;;;15.70;99.90;;;;;;4996369;28;20493;-76
2022/07/22 04:22:26;;;;;;;12.95;3.00;;;15.60;99.90;;;;;;4995322;28;20046;-77
2022/07/22 04:24:52;;;;;;;16.58;3.20;;;18.10;99.90;;;;;;4995499;28;20051;-76
2022/07/22 04:27:17;;;;;;;12.73;3.40;;;15.70;99.90;;;;;;4996944;28;20051;-76
2022/07/22 04:29:43;;;;;;;12.70;3.28;;;15.80;99.90;;;;;;4996739;28;20054;-76
2022/07/22 04:32:09;;;;;;;12.02;3.40;;;15.90;99.90;;;;;;4995091;28;20061;-76
2022/07/22 04:34:34;;;;;;;8.75;2.92;;;15.90;99.90;;;;;;4978520;28;20133;-76
2022/07/22 04:37:00;;;;;;;11.75;2.83;;;;;;;;;;4978562;28;20058;-77
2022/07/22 04:39:26;;;;;;;9.70;3.08;;;16.10;99.90;;;;;;4996269;28;20057;-77
2022/07/22 04:41:52;;;;;;;10.48;3.10;;;;;;;;;;4996431;28;20043;-76
2022/07/22 04:44:17;;;;;;;13.10;3.47;;;15.80;99.90;;;;;;4962391;28;20050;-76
2022/07/22 04:46:43;;;;;;;14.52;2.90;;;;;;;;;;4977782;28;20074;-76
2022/07/22 04:49:09;;;;;;;7.95;3.30;;;15.90;99.90;;;;;;4996417;28;20053;-77
2022/07/22 04:51:35;;;;;;;12.23;3.40;;;16.60;99.90;;;;;;4996580;28;20405;-76
2022/07/22 04:54:00;;;;;;;11.70;2.92;;;15.40;99.90;;;;;;4995054;28;20054;-76
2022/07/22 04:56:26;;;;;;;11.82;3.40;;;15.90;99.90;;;;;;4978667;28;20571;-76
2022/07/22 04:58:52;;;;;;;16.67;3.45;;;16.00;99.90;;;;;;4978827;28;20054;-76
2022/07/22 05:01:18;;;;;;;16.15;3.30;;;16.30;99.90;;;;;;4995587;28;20050;-77
2022/07/22 05:03:43;;;;;;;7.95;2.90;;;16.00;99.90;;;;;;4996587;28;20503;-77
2022/07/22 05:06:09;;;;;;;9.25;3.00;;;16.30;99.90;;;;;;4997528;28;20147;-76
2022/07/22 05:08:35;;;;;;;10.73;2.80;;;16.30;99.90;;;;;;4963368;28;20050;-76
2022/07/22 05:11:01;;;;;;;13.95;2.90;;;;;;;;;;4997043;28;20051;-77
2022/07/22 05:13:27;;;;;;;14.48;3.42;;;16.00;99.90;;;;;;4996918;28;20125;-76
2022/07/22 05:15:54;;;;;;;10.65;2.95;;;16.80;99.90;;;;;;4995081;28;20493;-76
2022/07/22 05:18:20;;;;;;;12.45;3.08;;;19.60;99.90;;;;;;4996095;28;20058;-77
2022/07/22 05:20:45;;;;;;;13.60;3.13;;;16.40;99.90;;;;;;4962442;28;20050;-77
2022/07/22 05:23:11;;;;;;;14.90;3.45;;;16.30;99.90;;;;;;4978444;28;20424;-77
2022/07/22 05:25:38;;;;;;;14.50;3.20;;;16.40;99.90;;;;;;4978985;28;20078;-77
2022/07/22 05:28:04;;;;;;;13.20;3.20;;;16.30;99.90;;;;;;4995945;28;20133;-76
2022/07/22 05:30:29;;;;;;;11.35;3.00;;;15.50;99.90;;;;;;4994524;28;20185;-76
2022/07/22 05:32:55;;;;;;;9.23;2.88;;;16.30;99.90;;;;;;4993870;28;20054;-76
2022/07/22 05:35:21;;;;;;;18.30;3.20;;;16.30;99.90;;;;;;4977774;28;20054;-76
2022/07/22 05:37:47;;;;;;;10.00;2.92;;;16.40;99.90;;;;;;4995482;28;20129;-77
2022/07/22 05:40:13;;;;;;;10.90;2.80;;;16.60;99.90;;;;;;4978468;28;20067;-76
2022/07/22 05:42:39;;;;;;;11.30;3.30;;;16.10;99.90;;;;;;4994742;28;20074;-77
2022/07/22 05:45:05;;;;;;;7.55;2.90;;;16.40;99.90;;;;;;4995332;28;20100;-76
2022/07/22 05:47:30;;;;;;;9.35;2.90;;;16.60;99.90;;;;;;4994127;28;20108;-76
2022/07/22 05:49:59;;;;;;;11.57;3.03;;;16.40;99.90;;;;;;4994219;28;20050;-76
2022/07/22 05:52:25;;;;;;;9.13;2.80;;;;;;;;;;4977918;28;20513;-76
2022/07/22 05:54:51;;;;;;;10.27;3.00;;;16.20;99.90;;;;;;4995108;28;20047;-76
2022/07/22 05:57:16;;;;;;;7.63;2.90;;;16.50;99.90;;;;;;4993721;28;20065;-76
2022/07/22 05:59:42;;;;;;;8.38;2.55;;;16.80;99.90;;;;;;4995374;28;20181;-77
2022/07/22 06:02:12;;;;;;;10.85;3.10;;;17.00;99.90;;;;;;4977729;28;20054;-77
2022/07/22 06:04:37;;;;;;;15.05;3.40;;;16.70;99.90;;;;;;4994079;28;20049;-77
2022/07/22 06:07:06;;;;;;;8.80;2.80;;;16.70;99.90;;;;;;4995252;28;20054;-76
2022/07/22 06:09:31;;;;;;;15.23;3.05;;;18.00;99.90;;;;;;4995401;28;20081;-77
2022/07/22 06:11:57;;;;;;;15.80;3.35;;;17.40;99.90;;;;;;4977702;28;20054;-77
2022/07/22 06:14:23;;;;;;;7.68;2.47;;;;;;;;;;4994849;28;20145;-76
2022/07/22 06:16:49;;;;;;;11.48;2.80;;;16.80;99.90;;;;;;4977232;28;20548;-76
2022/07/22 06:19:15;;;;;;;10.52;2.80;;;16.80;99.90;;;;;;4994379;28;20058;-76
2022/07/22 06:21:43;;;;;;;16.50;3.13;;;17.00;99.90;;;;;;4977493;28;20504;-76
2022/07/22 06:24:09;;;;;;;13.38;2.75;;;17.30;99.90;;;;;;4976788;28;20054;-76
2022/07/22 06:26:36;;;;;;;6.75;2.35;;;17.30;99.90;;;;;;4994349;28;20053;-77
2022/07/22 06:29:03;;;;;;;9.10;4.20;;;16.50;99.90;;;;;;4977111;28;20440;-77
2022/07/22 06:31:28;;;;;;;8.95;2.38;;;17.10;99.90;;;;;;4977008;28;20477;-77
2022/07/22 06:33:54;;;;;;;7.15;2.20;;;16.90;99.90;;;;;;4976613;28;20073;-76
2022/07/22 06:36:20;;;;;;;5.95;2.28;;;;;;;;;;4977060;28;20104;-76
2022/07/22 06:38:47;;;;;;;8.75;2.25;;;17.40;99.90;;;;;;4993647;28;20493;-76
2022/07/22 06:41:13;;;;;;;7.90;2.28;;;17.10;99.90;;;;;;4994165;28;20082;-77
2022/07/22 06:43:40;;;;;;;7.30;2.20;;;17.90;99.90;;;;;;4992893;28;20057;-76
2022/07/22 06:46:08;;;;;;;6.88;2.05;;;17.00;99.90;;;;;;4994025;28;20061;-76
2022/07/22 06:48:34;;;;;;;6.47;2.13;;;17.40;99.90;;;;;;4992751;28;20054;-76
2022/07/22 06:50:59;;;;;;;7.18;2.20;;;17.30;99.90;;;;;;4992609;28;20050;-76
2022/07/22 06:53:25;;;;;;;9.23;2.22;;;17.60;99.90;;;;;;4994117;28;20499;-76
2022/07/22 06:55:50;;;;;;;10.32;2.10;;;17.80;99.90;;;;;;4976644;28;20046;-76
2022/07/22 06:58:16;;;;;;;5.30;2.10;;;17.30;99.90;;;;;;4992906;28;20120;-77
2022/07/22 07:00:42;;;;;;;7.80;2.30;;;17.10;99.90;;;;;;4993756;28;20054;-76
2022/07/22 07:03:07;;;;;;;8.68;2.28;;;17.30;99.90;;;;;;4993058;28;20058;-77
2022/07/22 07:05:33;;;;;;;9.43;2.55;;;18.70;99.90;;;;;;4993515;28;20050;-76
2022/07/22 07:07:58;;;;;;;6.07;2.28;;;17.60;99.90;;;;;;4976426;28;20050;-76
2022/07/22 07:10:24;;;;;;;9.60;2.15;;;20.90;99.90;;;;;;4997842;28;20046;-76
2022/07/22 07:12:54;;;;;;;13.05;2.58;;;17.70;99.90;;;;;;4982648;28;20092;-76
2022/07/22 07:15:20;;;;;;;9.43;2.40;;;17.70;99.90;;;;;;4982808;28;20133;-77
2022/07/22 07:17:45;;;;;;;10.80;2.22;;;17.90;99.90;;;;;;4998986;28;20516;-77
2022/07/22 07:20:11;;;;;;;8.13;2.10;;;17.80;99.90;;;;;;4999327;28;20055;-76
2022/07/22 07:22:37;;;;;;;8.93;2.28;;;17.90;99.90;;;;;;4982596;28;20512;-76
2022/07/22 07:25:07;;;;;;;10.38;2.17;;;17.60;99.90;;;;;;4999883;28;20500;-75
2022/07/22 07:27:32;;;;;;;8.63;2.13;;;17.80;99.90;;;;;;4999333;28;20496;-76
2022/07/22 07:29:58;;;;;;;7.78;2.25;;;18.10;99.90;;;;;;4999498;28;20053;-76
2022/07/22 07:32:23;;;;;;;7.60;2.20;;;19.50;99.90;;;;;;4983592;28;20141;-76
2022/07/22 07:34:49;;;;;;;7.60;2.20;;;18.20;99.90;;;;;;5000142;28;20168;-76
2022/07/22 07:37:15;;;;;;;9.77;2.28;;;18.20;99.90;;;;;;4987934;28;20054;-76
2022/07/22 07:39:41;;;;;;;8.05;2.00;;;18.30;99.90;;;;;;4999036;28;20475;-76
2022/07/22 07:42:06;;;;;;;6.65;2.28;;;18.30;99.90;;;;;;4993915;28;20056;-77
2022/07/22 07:44:32;;;;;;;6.20;2.05;;;18.60;99.90;;;;;;4975235;28;20480;-76
2022/07/22 07:46:58;;;;;;;16.30;2.65;;;18.40;99.90;;;;;;4979987;28;20042;-76
2022/07/22 07:49:23;;;;;;;8.15;2.20;;;19.00;99.90;;;;;;5010966;28;20054;-76
2022/07/22 07:51:50;;;;;;;6.82;2.10;;;19.60;99.90;;;;;;4981700;28;20065;-76
2022/07/22 07:54:15;;;;;;;6.70;1.88;;;18.70;99.90;;;;;;4981945;28;20069;-76
2022/07/22 07:56:41;;;;;;;5.18;1.80;;;18.50;99.90;;;;;;4981324;28;20050;-76
2022/07/22 07:59:07;;;;;;;7.38;2.03;;;18.70;99.90;;;;;;4981696;28;20054;-76
2022/07/22 08:01:32;;;;;;;6.72;2.13;;;18.60;99.90;;;;;;4980806;28;20054;-76
2022/07/22 08:03:58;;;;;;;7.30;2.15;;;18.70;99.90;;;;;;4999014;28;20056;-76
2022/07/22 08:06:24;;;;;;;8.73;2.00;;;18.70;99.90;;;;;;4998671;28;20057;-76
2022/07/22 08:08:49;;;;;;;7.10;1.90;;;18.80;99.90;;;;;;4965206;28;20055;-77
2022/07/22 08:11:15;;;;;;;9.15;2.45;;;18.80;99.90;;;;;;4998536;28;20054;-76
2022/07/22 08:13:41;;;;;;;8.55;2.38;;;18.80;99.90;;;;;;5007077;28;20137;-76
2022/07/22 08:16:08;;;;;;;6.82;2.00;;;20.80;99.90;;;;;;5018755;28;20516;-77
2022/07/22 08:18:34;;;;;;;7.15;1.90;;;19.60;99.90;;;;;;4985043;28;20492;-76
2022/07/22 08:20:59;;;;;;;6.82;1.70;;;18.20;99.90;;;;;;4998418;28;20096;-76
2022/07/22 08:23:25;;;;;;;5.65;1.85;;;19.30;99.90;;;;;;4997595;28;20057;-76
2022/07/22 08:25:51;;;;;;;12.63;2.50;;;19.10;99.90;;;;;;5015505;28;20054;-76
2022/07/22 08:28:16;;;;;;;8.68;1.92;;;19.30;99.90;;;;;;4998125;28;20532;-76
2022/07/22 08:30:42;;;;;;;5.57;1.80;;;19.80;99.90;;;;;;5015324;28;20092;-77
2022/07/22 08:33:08;;;;;;;9.07;2.20;;;19.20;99.90;;;;;;5015579;28;20057;-76
2022/07/22 08:35:34;;;;;;;8.10;1.90;;;19.80;99.90;;;;;;4997387;28;20046;-75
2022/07/22 08:37:59;;;;;;;5.93;2.10;;;19.60;99.90;;;;;;4997836;28;20053;-76
2022/07/22 08:40:25;;;;;;;5.28;2.00;;;20.60;99.90;;;;;;4981236;28;20050;-76
2022/07/22 08:42:52;;;;;;;4.97;1.70;;;19.90;99.90;;;;;;4997451;28;20050;-76
2022/07/22 08:45:18;;;;;;;6.53;1.88;;;20.10;99.90;;;;;;5015332;28;20049;-76
2022/07/22 08:47:50;;;;;;;5.38;2.00;;;23.30;99.90;;;;;;4981395;28;20068;-76
2022/07/22 08:50:16;;;;;;;6.68;1.90;;;21.30;99.90;;;;;;4990673;28;20488;-77
2022/07/22 08:52:43;;;;;;;7.13;1.88;;;20.30;99.90;;;;;;4997239;28;20448;-76
2022/07/22 08:55:09;;;;;;;7.78;1.88;;;20.20;99.90;;;;;;5014933;28;20136;-75
2022/07/22 08:57:36;;;;;;;6.05;1.92;;;20.10;99.90;;;;;;5014549;28;20053;-75
2022/07/22 09:00:15;;;;;;;5.22;1.70;;;20.00;99.90;;;;;;5015064;28;20086;-76
2022/07/22 09:02:42;;;;;;;6.22;1.90;;;19.40;99.90;;;;;;5013974;28;20063;-77
2022/07/22 09:05:10;;;;;;;6.70;1.90;;;19.70;99.90;;;;;;4996525;28;20061;-76
2022/07/22 09:07:39;;;;;;;9.27;2.08;;;19.80;99.90;;;;;;5014854;28;20050;-76
2022/07/22 09:10:09;;;;;;;8.40;1.90;;;19.60;99.90;;;;;;4981420;28;20108;-76
2022/07/22 09:12:55;;;;;;;4.15;1.77;;;19.60;99.90;;;;;;5015677;28;20050;-76
2022/07/22 09:15:40;;;;;;;6.57;1.90;;;22.10;99.90;;;;;;5015349;28;20424;-76
2022/07/22 09:18:07;;;;;;;6.03;2.03;;;19.00;99.90;;;;;;4981214;28;20104;-76
2022/07/22 09:20:34;;;;;;;5.45;1.75;;;19.80;99.90;;;;;;5013767;28;20045;-76
2022/07/22 09:23:00;;;;;;;5.43;2.10;;;19.50;99.90;;;;;;5014559;28;20054;-76
2022/07/22 09:25:29;;;;;;;5.40;1.85;;;19.10;99.90;;;;;;5014750;28;20042;-76
2022/07/22 09:28:05;;;;;;;8.45;2.13;;;20.20;99.90;;;;;;4996925;28;20049;-76
2022/07/22 09:30:34;;;;;;;7.30;1.83;;;19.30;99.90;;;;;;5012840;28;20084;-76
2022/07/22 09:32:59;;;;;;;6.13;2.00;;;19.20;99.90;;;;;;4980779;28;20107;-75
2022/07/22 09:35:26;;;;;;;6.75;1.92;;;19.10;99.90;;;;;;5014825;28;20057;-76
2022/07/22 09:37:55;;;;;;;8.63;2.78;;;20.50;99.90;;;;;;5015111;28;20042;-76
2022/07/22 09:40:25;;;;;;;6.97;2.00;;;21.70;99.90;;;;;;5015109;28;20076;-76
2022/07/22 09:42:56;;;;;;;6.18;2.08;;;19.20;99.90;;;;;;5014351;28;20093;-76
2022/07/22 09:45:24;;;;;;;6.68;2.10;;;19.30;99.90;;;;;;4997704;28;20054;-77
2022/07/22 09:47:50;;;;;;;9.45;1.90;;;19.30;99.90;;;;;;4997655;28;20066;-76
2022/07/22 09:50:18;;;;;;;12.43;2.00;;;19.20;99.90;;;;;;4997314;28;20061;-76
2022/07/22 09:52:44;;;;;;;8.02;2.17;;;20.50;99.90;;;;;;5015005;28;20057;-76
2022/07/22 09:55:10;;;;;;;6.90;1.70;;;19.20;99.90;;;;;;4980508;28;20503;-77
2022/07/22 09:57:35;;;;;;;7.07;2.10;;;19.10;99.90;;;;;;5014870;28;20049;-76
2022/07/22 10:00:02;;;;;;;9.98;2.17;;;19.50;99.90;;;;;;4997525;28;20391;-76
2022/07/22 10:02:30;;;;;;;5.80;2.17;;;19.60;99.90;;;;;;4996064;28;20064;-76
2022/07/22 10:04:58;;;;;;;6.25;1.90;;;19.60;99.90;;;;;;4995332;28;20054;-76
2022/07/22 10:07:26;;;;;;;8.95;2.10;;;19.80;99.90;;;;;;4996514;28;20124;-77
2022/07/22 10:09:53;;;;;;;10.20;2.10;;;19.80;99.90;;;;;;4996854;28;20050;-76
2022/07/22 10:12:19;;;;;;;4.53;1.85;;;20.00;99.90;;;;;;4996569;28;20050;-76
2022/07/22 10:14:46;;;;;;;6.78;1.88;;;20.00;99.90;;;;;;4996806;28;20464;-76
2022/07/22 10:17:14;;;;;;;6.60;1.80;;;20.20;99.90;;;;;;4996633;28;20046;-76
2022/07/22 10:19:40;;;;;;;8.15;2.10;;;20.00;99.90;;;;;;4980429;28;20065;-76
2022/07/22 10:22:45;;;;;;;6.30;1.90;;;20.10;99.90;;;;;;4996871;28;20477;-77
2022/07/22 10:25:12;;;;;;;7.32;1.92;;;20.30;99.90;;;;;;4996365;28;20061;-76
2022/07/22 10:27:52;;;;;;;6.72;1.80;;;20.30;99.90;;;;;;5014115;28;20045;-76
2022/07/22 10:30:27;;;;;;;5.93;1.80;;;20.60;99.90;;;;;;5013966;28;20054;-76
2022/07/22 10:33:12;;;;;;;4.70;1.70;;;20.50;99.90;;;;;;4980528;28;20133;-76
2022/07/22 10:35:55;;;;;;;10.10;2.17;;;20.60;99.90;;;;;;5014156;28;20056;-76
2022/07/22 10:38:21;;;;;;;6.00;1.90;;;20.70;99.90;;;;;;5013974;28;20049;-76
2022/07/22 10:41:01;;;;;;;5.18;1.63;;;20.80;99.90;;;;;;5014009;28;20069;-77
2022/07/22 10:43:44;;;;;;;5.13;1.98;;;20.90;99.90;;;;;;5013323;28;20046;-76
2022/07/22 10:46:10;;;;;;;4.53;1.60;;;21.10;99.90;;;;;;4996233;28;20073;-76
2022/07/22 10:48:36;;;;;;;6.53;1.85;;;21.40;99.90;;;;;;5013849;28;20121;-76
2022/07/22 10:51:07;;;;;;;5.28;1.80;;;21.40;99.90;;;;;;5012660;28;20500;-76
2022/07/22 10:53:42;;;;;;;6.88;1.63;;;21.60;99.90;;;;;;5014280;28;20096;-76
2022/07/22 10:56:15;;;;;;;5.22;1.90;;;21.70;99.90;;;;;;5013985;28;20053;-76
2022/07/22 10:58:44;;;;;;;2.90;1.50;;;22.20;99.90;;;;;;4996083;28;20487;-76
2022/07/22 11:01:12;;;;;;;3.85;1.55;;;22.10;99.90;;;;;;4995774;28;20076;-76
2022/07/22 11:03:43;;;;;;;4.70;1.85;;;22.80;99.90;;;;;;5013659;28;20046;-77
2022/07/22 11:06:30;;;;;;;4.10;1.80;;;21.90;99.90;;;;;;5014077;28;20112;-74
2022/07/22 11:08:58;;;;;;;4.70;1.60;;;22.10;99.90;;;;;;5013416;28;20053;-75
2022/07/22 11:11:50;;;;;;;4.72;1.63;;;22.20;99.90;;;;;;4995892;28;20493;-75
2022/07/22 11:14:33;;;;;;;4.03;1.60;;;22.10;97.10;;;;;;5013600;28;20420;-75
2022/07/22 11:17:04;;;;;;;5.50;1.80;;;21.90;99.00;;;;;;5014107;28;20062;-75
2022/07/22 11:19:32;;;;;;;5.18;1.73;;;21.80;99.50;;;;;;4996654;28;20062;-75
2022/07/22 11:22:01;;;;;;;6.00;1.80;;;21.80;99.90;;;;;;4996922;28;20050;-75
2022/07/22 11:24:29;;;;;;;5.55;1.83;;;22.90;99.90;;;;;;5013549;28;20136;-75
2022/07/22 11:26:58;;;;;;;9.82;1.90;;;21.60;99.90;;;;;;5013678;28;20060;-76
2022/07/22 11:29:39;;;;;;;6.43;1.80;;;21.30;99.90;;;;;;5013588;28;20136;-75
2022/07/22 11:32:07;;;;;;;6.22;2.00;;;21.40;99.90;;;;;;4980563;28;20068;-75
2022/07/22 11:34:37;;;;;;;8.95;1.92;;;23.30;99.90;;;;;;5013965;28;20046;-76
2022/07/22 11:37:03;;;;;;;7.18;1.92;;;21.00;99.90;;;;;;4995838;28;20054;-75
2022/07/22 11:39:32;;;;;;;3.78;1.58;;;20.90;99.90;;;;;;5014111;28;20136;-78
2022/07/22 11:42:02;;;;;;;6.43;2.00;;;21.00;99.90;;;;;;5013451;28;20081;-76
2022/07/22 11:44:33;;;;;;;6.95;2.00;;;20.90;99.90;;;;;;4979402;28;20088;-78
2022/07/22 11:47:00;;;;;;;8.70;1.92;;;20.80;99.90;;;;;;4995631;28;20062;-75
2022/07/22 11:49:35;;;;;;;4.03;1.77;;;20.70;99.90;;;;;;4995816;28;20046;-76
2022/07/22 11:52:07;;;;;;;5.18;1.80;;;20.60;99.90;;;;;;4964249;28;20113;-76
2022/07/22 11:54:34;;;;;;;4.75;2.00;;;20.60;99.90;;;;;;5013488;28;20508;-75
2022/07/22 11:57:01;;;;;;;7.22;2.00;;;20.60;99.90;;;;;;4999307;28;20137;-75
2022/07/22 11:59:28;;;;;;;4.93;1.83;;;20.50;99.90;;;;;;5017168;28;20108;-75
2022/07/22 12:01:53;;;;;;;6.30;1.98;;;20.90;99.90;;;;;;4998874;28;20054;-74
2022/07/22 12:04:24;;;;;;;6.20;1.70;;;20.20;99.90;;;;;;4999233;28;20441;-76
2022/07/22 12:06:51;;;;;;;7.25;2.17;;;21.10;99.90;;;;;;5011843;28;20112;-75
2022/07/22 12:09:21;;;;;;;4.18;1.90;;;20.40;99.90;;;;;;4999092;28;20101;-76
2022/07/22 12:11:49;;;;;;;4.85;1.95;;;20.50;99.90;;;;;;4983331;28;20050;-76
2022/07/22 12:14:20;;;;;;;6.53;1.90;;;20.40;99.90;;;;;;5000498;28;20408;-75
2022/07/22 12:17:01;;;;;;;7.53;1.90;;;20.50;99.90;;;;;;5017383;28;20056;-75
2022/07/22 12:19:29;;;;;;;7.22;2.10;;;20.50;99.90;;;;;;5018348;28;20496;-75
2022/07/22 12:21:59;;;;;;;6.88;2.35;;;20.70;99.90;;;;;;5000600;28;20540;-75
2022/07/22 12:24:36;;;;;;;7.80;1.90;;;20.60;99.90;;;;;;4999704;28;20046;-76
2022/07/22 12:27:06;;;;;;;7.10;1.90;;;20.60;99.90;;;;;;5017451;28;20054;-75
2022/07/22 12:29:35;;;;;;;4.93;1.70;;;20.70;99.90;;;;;;4998665;28;20082;-75
2022/07/22 12:32:02;;;;;;;4.38;1.90;;;20.80;99.90;;;;;;4998798;28;20102;-75
2022/07/22 12:34:32;;;;;;;7.35;1.90;;;20.70;99.90;;;;;;4999029;28;20069;-75
2022/07/22 12:36:57;;;;;;;4.47;1.92;;;20.70;99.90;;;;;;5016619;28;20560;-75
2022/07/22 12:39:23;;;;;;;5.15;1.48;;;21.80;99.90;;;;;;5017791;28;20073;-75
2022/07/22 12:41:52;;;;;;;7.93;1.88;;;20.80;99.90;;;;;;4999875;28;20131;-76
2022/07/22 12:44:23;;;;;;;6.38;1.63;;;20.70;99.90;;;;;;4999087;28;20054;-76
2022/07/22 12:46:55;;;;;;;6.95;1.98;;;20.60;99.90;;;;;;5016080;28;20058;-74
2022/07/22 12:49:23;;;;;;;4.90;1.77;;;21.00;99.90;;;;;;4999096;28;20097;-75